Aérodrome :
LOGIN :

S'inscrire | Disclaimer

   EN    FR    IT 

 










Légende :    VFR   VFR Marginal   IFR   IFR Intensif   IFR Très Intensif
Visi : 
Plafond : 
>= 8 km
>= 3000ft
5 à 8 km
1000 à 3000 ft
1500m à 5 km
500 à 1000 ft
800 à 1500m
200 à 500 ft
< 800m
< 200 ft
Symboles :   Orages  Brouillard  Fortes neiges  Fortes précipitations  Vent > 20 kt
SIGMETs :   Divers  Orages  Givrage  Turbulence  Onde Orograph.  Cendres Volcan.






- Altitude de l'aérodrome : 1959 ft
- Code IATA : HOQ


EDQM - Hof Plauen

DERNIER METAR :
  • 061650Z 20010KT 160V240 9999 FEW026 SCT038 13/09 Q1005

METARs EXPIRÉS :
  • 061620Z 22011KT 9999 SCT029 SCT043 12/08 Q1005
  • 061550Z 21011KT 170V240 9999 SCT024 BKN029 13/08 Q1005
  • 061520Z 21010KT 170V250 9999 SCT026 SCT030 BKN070 13/09 Q1005
  • 061450Z 20013KT 9999 BKN025 13/08 Q1005
  • 061420Z 21010KT 160V240 9999 FEW025 BKN057 13/08 Q1005

TAF TAF EDQM
Valide du 06 à 15h jusqu'au 07 à 00h UTC


061400Z 0615/0624 21010KT 9999 BKN020
TEMPO 0616/0618 4000 SHRA BKN012CB
BECMG 0618/0620 21003KT



MET'MAP, la Météo Aéronautique d'un coup d'oeil ! - Copyright ORBIFLY Décembre 2007 - Disclaimer

ORBIFLY MET'MAP TEAM :

Programmation & Développement : Alexandra Zaïnal
Sur une idée originale de : Baudouin d'Aumeries
Assistance à la programmation : Marc-Olivier Méhu
Soutien technique & logistique : Manuel Goepfert

Contact : metmap@orbifly.com




SOURCES & CREDITS :

   NOAA